logo dgac
Martes 21 de Septiembre del 2021
Buscar por aerodromo o helipuerto
Ingrese nombre de aeródromo, localidad o designador OACI:

Aeródromo: Capitán Fuentes Martinez (PUB) (SCFM)

Ubicación: Porvenir, XII Región, Chile (53º 15' 13'' S, 70º 19' 09'' W) Ver ubicación en el mapa

Pistas

Orientación Dimensión Pendiente Superficie Resistencia APCH THR RWY PAPI
03/21 960 x 30 0,40 ASPH 20.000 kg No
09/27 2500 x 30 0,30 ASPH PCN 12 F/Y/C/U No
Horas de operación HJ
Elevación 32 m / 104 ft
Otra Información Adm : DGAC.
Uso : PUB
Ubicado 5 km NE Porvenir
TEL/FAX (61) 2745500/2745501 CEL (09) 91581768
email : aro.porvenir@dgac.gob.cl

Cámara de Aeródromo www.dgac.gob.cl

Otra información ver AIP-Chile Volumen I AD 3.9-15.7-P

CCCM/FCCV Descargar
andera de Chile
Mapa de Capitán Fuentes Martinez (PUB) (SCFM)

Último METAR

METAR SCFM 210000Z NIL

Último TAF

TAF SCFM 211004Z 2112/2200 31020G35KT 9999 FEW045 TN09/2112Z TX12/2118Z BECMG 2120/2122 30010KT TEMPO 2122/2200 9000 -RA BKN040

Últimas fotos cámaras

Imagen aerodromo Capitán Fuentes Martinez (PUB) (SCFM) Este tomada el 21-09-2021 11:48:17 Imagen aerodromo Capitán Fuentes Martinez (PUB) (SCFM) Oeste tomada el 07-07-2021 06:21:43

Último NOTAM

C3297/21 NOTAMR C2527/21 Q)SCCZ/QFAAH/IV/NBO/A/000/999/5315S07019W005 A)SCFM B)2107241158 C)PERM D)MON-FRI BTN 1100-2030 SAT BTN 1100-1700 SUN-HOL OTHR A REQ E)AD HR ATTN AFIS-ARO-COM-MET